sensor_id;sensor_type;location;lat;lon;timestamp;pressure;altitude;pressure_sealevel;temperature;humidity
14242;BME280;7205;50.864;12.766;2023-05-25T00:00:26;98326.34;;;8.15;79.71
14242;BME280;7205;50.864;12.766;2023-05-25T00:02:53;98329.13;;;8.13;80.18
14242;BME280;7205;50.864;12.766;2023-05-25T00:05:20;98333.69;;;8.11;80.23
14242;BME280;7205;50.864;12.766;2023-05-25T00:07:53;98322.47;;;8.09;80.29
14242;BME280;7205;50.864;12.766;2023-05-25T00:10:20;98332.19;;;8.09;80.82
14242;BME280;7205;50.864;12.766;2023-05-25T00:12:47;98330.66;;;8.06;80.52
14242;BME280;7205;50.864;12.766;2023-05-25T00:15:14;98339.53;;;8.05;80.78
14242;BME280;7205;50.864;12.766;2023-05-25T00:17:41;98341.31;;;8.05;80.64
14242;BME280;7205;50.864;12.766;2023-05-25T00:20:08;98338.00;;;8.03;80.69
14242;BME280;7205;50.864;12.766;2023-05-25T00:22:35;98333.72;;;8.02;80.86
14242;BME280;7205;50.864;12.766;2023-05-25T00:25:05;98336.50;;;8.00;80.98
14242;BME280;7205;50.864;12.766;2023-05-25T00:27:32;98340.22;;;7.98;80.93
14242;BME280;7205;50.864;12.766;2023-05-25T00:29:59;98331.50;;;7.97;81.23
14242;BME280;7205;50.864;12.766;2023-05-25T00:32:26;98329.84;;;7.96;81.49
14242;BME280;7205;50.864;12.766;2023-05-25T00:34:52;98331.66;;;7.96;81.45
14242;BME280;7205;50.864;12.766;2023-05-25T00:37:19;98328.34;;;7.94;81.65
14242;BME280;7205;50.864;12.766;2023-05-25T00:39:46;98321.41;;;7.93;81.50
14242;BME280;7205;50.864;12.766;2023-05-25T00:42:14;98324.19;;;7.91;81.10
14242;BME280;7205;50.864;12.766;2023-05-25T00:44:41;98315.63;;;7.89;82.01
14242;BME280;7205;50.864;12.766;2023-05-25T00:47:09;98308.72;;;7.88;81.79
14242;BME280;7205;50.864;12.766;2023-05-25T00:49:37;98313.97;;;7.88;81.91
14242;BME280;7205;50.864;12.766;2023-05-25T00:52:04;98308.84;;;7.87;82.25
14242;BME280;7205;50.864;12.766;2023-05-25T00:54:31;98309.00;;;7.85;82.12
14242;BME280;7205;50.864;12.766;2023-05-25T00:57:01;98305.69;;;7.83;82.33
14242;BME280;7205;50.864;12.766;2023-05-25T00:59:32;98311.06;;;7.82;82.35
14242;BME280;7205;50.864;12.766;2023-05-25T01:02:07;98311.22;;;7.80;82.27
14242;BME280;7205;50.864;12.766;2023-05-25T01:04:35;98307.06;;;7.78;82.79
14242;BME280;7205;50.864;12.766;2023-05-25T01:07:07;98312.31;;;7.78;82.82
14242;BME280;7205;50.864;12.766;2023-05-25T01:09:39;98314.25;;;7.76;82.37
14242;BME280;7205;50.864;12.766;2023-05-25T01:12:10;98316.88;;;7.76;82.90
14242;BME280;7205;50.864;12.766;2023-05-25T01:14:40;98312.75;;;7.73;83.12
14242;BME280;7205;50.864;12.766;2023-05-25T01:17:07;98321.59;;;7.72;82.98
14242;BME280;7205;50.864;12.766;2023-05-25T01:19:35;98325.19;;;7.71;83.24
14242;BME280;7205;50.864;12.766;2023-05-25T01:22:11;98322.00;;;7.68;83.20
14242;BME280;7205;50.864;12.766;2023-05-25T01:24:43;98326.56;;;7.65;83.42
14242;BME280;7205;50.864;12.766;2023-05-25T01:27:15;98327.56;;;7.64;83.19
14242;BME280;7205;50.864;12.766;2023-05-25T01:29:44;98335.44;;;7.64;83.43
14242;BME280;7205;50.864;12.766;2023-05-25T01:32:12;98325.88;;;7.63;83.09
14242;BME280;7205;50.864;12.766;2023-05-25T01:34:40;98328.00;;;7.60;83.63
14242;BME280;7205;50.864;12.766;2023-05-25T01:37:09;98327.00;;;7.61;83.82
14242;BME280;7205;50.864;12.766;2023-05-25T01:39:38;98332.25;;;7.61;83.84
14242;BME280;7205;50.864;12.766;2023-05-25T01:42:06;98331.56;;;7.59;83.77
14242;BME280;7205;50.864;12.766;2023-05-25T01:44:33;98329.78;;;7.59;83.91
14242;BME280;7205;50.864;12.766;2023-05-25T01:47:06;98332.53;;;7.58;84.02
14242;BME280;7205;50.864;12.766;2023-05-25T01:49:44;98330.06;;;7.56;84.14
14242;BME280;7205;50.864;12.766;2023-05-25T01:52:19;98339.59;;;7.57;84.18
14242;BME280;7205;50.864;12.766;2023-05-25T01:54:52;98330.06;;;7.56;84.13
14242;BME280;7205;50.864;12.766;2023-05-25T01:57:19;98324.09;;;7.54;84.05
14242;BME280;7205;50.864;12.766;2023-05-25T01:59:46;98325.06;;;7.53;84.33
14242;BME280;7205;50.864;12.766;2023-05-25T02:02:17;98329.50;;;7.53;84.46
14242;BME280;7205;50.864;12.766;2023-05-25T02:04:46;98324.25;;;7.53;84.56
14242;BME280;7205;50.864;12.766;2023-05-25T02:07:12;98325.19;;;7.52;84.79
14242;BME280;7205;50.864;12.766;2023-05-25T02:09:41;98334.06;;;7.51;84.86
14242;BME280;7205;50.864;12.766;2023-05-25T02:12:08;98329.91;;;7.48;84.91
14242;BME280;7205;50.864;12.766;2023-05-25T02:14:35;98335.16;;;7.48;84.66
14242;BME280;7205;50.864;12.766;2023-05-25T02:17:01;98325.75;;;7.46;84.82
14242;BME280;7205;50.864;12.766;2023-05-25T02:19:28;98332.00;;;7.45;84.96
14242;BME280;7205;50.864;12.766;2023-05-25T02:21:55;98326.06;;;7.43;84.88
14242;BME280;7205;50.864;12.766;2023-05-25T02:24:23;98331.44;;;7.41;84.85
14242;BME280;7205;50.864;12.766;2023-05-25T02:26:53;98339.47;;;7.40;84.92
14242;BME280;7205;50.864;12.766;2023-05-25T02:29:21;98345.69;;;7.39;85.05
14242;BME280;7205;50.864;12.766;2023-05-25T02:31:48;98338.91;;;7.36;85.01
14242;BME280;7205;50.864;12.766;2023-05-25T02:34:15;98343.19;;;7.37;84.85
14242;BME280;7205;50.864;12.766;2023-05-25T02:36:42;98332.13;;;7.34;84.80
14242;BME280;7205;50.864;12.766;2023-05-25T02:39:09;98341.13;;;7.31;84.92
14242;BME280;7205;50.864;12.766;2023-05-25T02:41:37;98342.91;;;7.31;84.98
14242;BME280;7205;50.864;12.766;2023-05-25T02:44:07;98335.16;;;7.29;85.31
14242;BME280;7205;50.864;12.766;2023-05-25T02:46:34;98337.09;;;7.27;85.23
14242;BME280;7205;50.864;12.766;2023-05-25T02:49:01;98335.44;;;7.26;84.83
14242;BME280;7205;50.864;12.766;2023-05-25T02:51:28;98339.16;;;7.24;85.29
14242;BME280;7205;50.864;12.766;2023-05-25T02:53:57;98350.50;;;7.24;85.37
14242;BME280;7205;50.864;12.766;2023-05-25T02:56:24;98347.19;;;7.22;85.24
14242;BME280;7205;50.864;12.766;2023-05-25T02:58:52;98351.59;;;7.22;85.22
14242;BME280;7205;50.864;12.766;2023-05-25T03:01:28;98350.78;;;7.21;85.37
14242;BME280;7205;50.864;12.766;2023-05-25T03:03:56;98352.59;;;7.21;85.25
14242;BME280;7205;50.864;12.766;2023-05-25T03:06:25;98355.22;;;7.21;85.42
14242;BME280;7205;50.864;12.766;2023-05-25T03:08:58;98358.81;;;7.20;85.34
14242;BME280;7205;50.864;12.766;2023-05-25T03:11:25;98360.59;;;7.19;85.81
14242;BME280;7205;50.864;12.766;2023-05-25T03:13:54;98357.97;;;7.19;85.60
14242;BME280;7205;50.864;12.766;2023-05-25T03:16:21;98363.09;;;7.21;86.13
14242;BME280;7205;50.864;12.766;2023-05-25T03:18:50;98361.97;;;7.23;86.34
14242;BME280;7205;50.864;12.766;2023-05-25T03:21:17;98354.78;;;7.25;86.74
14242;BME280;7205;50.864;12.766;2023-05-25T03:23:44;98360.59;;;7.29;86.75
14242;BME280;7205;50.864;12.766;2023-05-25T03:26:11;98367.38;;;7.31;87.03
14242;BME280;7205;50.864;12.766;2023-05-25T03:28:38;98367.81;;;7.36;87.46
14242;BME280;7205;50.864;12.766;2023-05-25T03:31:05;98363.91;;;7.40;87.47
14242;BME280;7205;50.864;12.766;2023-05-25T03:33:32;98369.59;;;7.45;87.86
14242;BME280;7205;50.864;12.766;2023-05-25T03:36:00;98386.63;;;7.51;87.90
14242;BME280;7205;50.864;12.766;2023-05-25T03:38:31;98382.63;;;7.56;88.03
14242;BME280;7205;50.864;12.766;2023-05-25T03:40:58;98381.34;;;7.60;88.11
14242;BME280;7205;50.864;12.766;2023-05-25T03:43:25;98384.41;;;7.65;88.17
14242;BME280;7205;50.864;12.766;2023-05-25T03:45:53;98383.03;;;7.71;88.96
14242;BME280;7205;50.864;12.766;2023-05-25T03:48:20;98383.44;;;7.76;88.39
14242;BME280;7205;50.864;12.766;2023-05-25T03:50:46;98383.69;;;7.83;88.80
14242;BME280;7205;50.864;12.766;2023-05-25T03:53:16;98388.28;;;7.90;88.90
14242;BME280;7205;50.864;12.766;2023-05-25T03:55:43;98383.16;;;7.98;89.24
14242;BME280;7205;50.864;12.766;2023-05-25T03:58:11;98382.41;;;8.06;89.27
14242;BME280;7205;50.864;12.766;2023-05-25T04:00:38;98391.13;;;8.16;89.66
14242;BME280;7205;50.864;12.766;2023-05-25T04:03:06;98386.97;;;8.23;90.15
14242;BME280;7205;50.864;12.766;2023-05-25T04:05:35;98392.38;;;8.31;89.50
14242;BME280;7205;50.864;12.766;2023-05-25T04:08:03;98393.31;;;8.39;89.34
14242;BME280;7205;50.864;12.766;2023-05-25T04:10:35;98400.38;;;8.48;89.45
14242;BME280;7205;50.864;12.766;2023-05-25T04:13:01;98396.19;;;8.55;88.79
14242;BME280;7205;50.864;12.766;2023-05-25T04:15:28;98396.16;;;8.65;88.83
14242;BME280;7205;50.864;12.766;2023-05-25T04:18:02;98398.03;;;8.72;89.11
14242;BME280;7205;50.864;12.766;2023-05-25T04:20:30;98405.09;;;8.81;88.57
14242;BME280;7205;50.864;12.766;2023-05-25T04:22:57;98399.22;;;8.87;88.93
14242;BME280;7205;50.864;12.766;2023-05-25T04:25:24;98408.06;;;8.96;88.99
14242;BME280;7205;50.864;12.766;2023-05-25T04:27:54;98407.19;;;9.05;88.22
14242;BME280;7205;50.864;12.766;2023-05-25T04:30:38;98410.75;;;9.14;88.87
14242;BME280;7205;50.864;12.766;2023-05-25T04:33:19;98408.22;;;9.22;88.97
14242;BME280;7205;50.864;12.766;2023-05-25T04:36:11;98403.84;;;9.30;88.36
14242;BME280;7205;50.864;12.766;2023-05-25T04:38:38;98401.44;;;9.37;87.97
14242;BME280;7205;50.864;12.766;2023-05-25T04:41:06;98414.72;;;9.45;88.01
14242;BME280;7205;50.864;12.766;2023-05-25T04:43:36;98419.25;;;9.52;88.46
14242;BME280;7205;50.864;12.766;2023-05-25T04:46:02;98416.00;;;9.58;88.12
14242;BME280;7205;50.864;12.766;2023-05-25T04:48:32;98412.63;;;9.66;87.74
14242;BME280;7205;50.864;12.766;2023-05-25T04:50:59;98416.31;;;9.73;88.23
14242;BME280;7205;50.864;12.766;2023-05-25T04:53:29;98399.91;;;9.79;88.13
14242;BME280;7205;50.864;12.766;2023-05-25T04:56:04;98406.06;;;9.87;88.21
14242;BME280;7205;50.864;12.766;2023-05-25T04:58:31;98405.97;;;9.97;88.98
14242;BME280;7205;50.864;12.766;2023-05-25T05:00:59;98394.69;;;10.04;89.27
14242;BME280;7205;50.864;12.766;2023-05-25T05:03:26;98394.63;;;10.14;89.39
14242;BME280;7205;50.864;12.766;2023-05-25T05:05:53;98393.53;;;10.25;88.97
14242;BME280;7205;50.864;12.766;2023-05-25T05:08:24;98395.25;;;10.34;89.54
14242;BME280;7205;50.864;12.766;2023-05-25T05:10:51;98394.16;;;10.44;90.16
14242;BME280;7205;50.864;12.766;2023-05-25T05:13:18;98394.19;;;10.52;90.10
14242;BME280;7205;50.864;12.766;2023-05-25T05:15:46;98406.47;;;10.61;90.46
14242;BME280;7205;50.864;12.766;2023-05-25T05:18:14;98408.16;;;10.70;89.67
14242;BME280;7205;50.864;12.766;2023-05-25T05:20:41;98405.59;;;10.78;90.27
14242;BME280;7205;50.864;12.766;2023-05-25T05:23:09;98409.06;;;10.87;90.65
14242;BME280;7205;50.864;12.766;2023-05-25T05:25:36;98406.34;;;10.96;90.68
14242;BME280;7205;50.864;12.766;2023-05-25T05:28:03;98407.19;;;11.05;90.32
14242;BME280;7205;50.864;12.766;2023-05-25T05:30:35;98402.91;;;11.12;90.61
14242;BME280;7205;50.864;12.766;2023-05-25T05:33:02;98404.59;;;11.21;90.71
14242;BME280;7205;50.864;12.766;2023-05-25T05:35:36;98409.75;;;11.30;90.53
14242;BME280;7205;50.864;12.766;2023-05-25T05:38:10;98414.09;;;11.39;90.60
14242;BME280;7205;50.864;12.766;2023-05-25T05:40:41;98415.44;;;11.52;90.36
14242;BME280;7205;50.864;12.766;2023-05-25T05:43:09;98411.16;;;11.59;89.67
14242;BME280;7205;50.864;12.766;2023-05-25T05:45:36;98413.69;;;11.68;89.66
14242;BME280;7205;50.864;12.766;2023-05-25T05:48:03;98408.41;;;11.76;89.06
14242;BME280;7205;50.864;12.766;2023-05-25T05:50:30;98406.75;;;11.83;88.95
14242;BME280;7205;50.864;12.766;2023-05-25T05:52:59;98409.25;;;11.93;88.64
14242;BME280;7205;50.864;12.766;2023-05-25T05:55:26;98410.56;;;11.97;88.11
14242;BME280;7205;50.864;12.766;2023-05-25T05:57:58;98405.44;;;12.03;87.49
14242;BME280;7205;50.864;12.766;2023-05-25T06:00:36;98416.69;;;12.13;86.83
14242;BME280;7205;50.864;12.766;2023-05-25T06:03:05;98412.06;;;12.15;86.27
14242;BME280;7205;50.864;12.766;2023-05-25T06:05:32;98406.09;;;12.21;85.82
14242;BME280;7205;50.864;12.766;2023-05-25T06:08:01;98413.53;;;12.26;85.32
14242;BME280;7205;50.864;12.766;2023-05-25T06:10:28;98412.88;;;12.32;85.33
14242;BME280;7205;50.864;12.766;2023-05-25T06:12:55;98414.84;;;12.38;84.94
14242;BME280;7205;50.864;12.766;2023-05-25T06:15:22;98414.50;;;12.41;84.56
14242;BME280;7205;50.864;12.766;2023-05-25T06:17:51;98415.84;;;12.45;83.85
14242;BME280;7205;50.864;12.766;2023-05-25T06:20:19;98422.31;;;12.50;83.47
14242;BME280;7205;50.864;12.766;2023-05-25T06:22:46;98426.25;;;12.54;83.22
14242;BME280;7205;50.864;12.766;2023-05-25T06:25:14;98425.91;;;12.57;82.43
14242;BME280;7205;50.864;12.766;2023-05-25T06:27:42;98426.56;;;12.59;81.43
14242;BME280;7205;50.864;12.766;2023-05-25T06:30:11;98430.72;;;12.62;81.06
14242;BME280;7205;50.864;12.766;2023-05-25T06:32:38;98426.09;;;12.64;80.40
14242;BME280;7205;50.864;12.766;2023-05-25T06:35:05;98422.94;;;12.69;80.38
14242;BME280;7205;50.864;12.766;2023-05-25T06:37:34;98434.81;;;12.73;79.83
14242;BME280;7205;50.864;12.766;2023-05-25T06:40:04;98436.81;;;12.79;79.91
14242;BME280;7205;50.864;12.766;2023-05-25T06:42:33;98443.91;;;12.86;79.90
14242;BME280;7205;50.864;12.766;2023-05-25T06:45:01;98438.78;;;12.93;79.75
14242;BME280;7205;50.864;12.766;2023-05-25T06:47:30;98434.28;;;13.01;79.46
14242;BME280;7205;50.864;12.766;2023-05-25T06:49:58;98435.09;;;13.10;79.21
14242;BME280;7205;50.864;12.766;2023-05-25T06:52:26;98431.41;;;13.19;78.65
14242;BME280;7205;50.864;12.766;2023-05-25T06:54:53;98431.38;;;13.27;78.06
14242;BME280;7205;50.864;12.766;2023-05-25T06:57:20;98431.81;;;13.38;78.25
14242;BME280;7205;50.864;12.766;2023-05-25T06:59:48;98437.91;;;13.47;77.41
14242;BME280;7205;50.864;12.766;2023-05-25T07:02:15;98426.78;;;13.51;75.33
14242;BME280;7205;50.864;12.766;2023-05-25T07:04:43;98421.78;;;13.56;74.29
14242;BME280;7205;50.864;12.766;2023-05-25T07:07:10;98433.53;;;13.62;72.42
14242;BME280;7205;50.864;12.766;2023-05-25T07:09:38;98432.84;;;13.68;71.58
14242;BME280;7205;50.864;12.766;2023-05-25T07:12:06;98431.94;;;13.75;70.33
14242;BME280;7205;50.864;12.766;2023-05-25T07:14:34;98439.16;;;13.90;69.13
14242;BME280;7205;50.864;12.766;2023-05-25T07:17:02;98440.69;;;14.07;68.59
14242;BME280;7205;50.864;12.766;2023-05-25T07:19:29;98444.72;;;14.25;68.03
14242;BME280;7205;50.864;12.766;2023-05-25T07:21:57;98443.13;;;14.39;67.11
14242;BME280;7205;50.864;12.766;2023-05-25T07:24:24;98433.72;;;14.51;65.95
14242;BME280;7205;50.864;12.766;2023-05-25T07:26:51;98434.28;;;14.61;65.56
14242;BME280;7205;50.864;12.766;2023-05-25T07:29:17;98428.00;;;14.76;65.75
14242;BME280;7205;50.864;12.766;2023-05-25T07:31:44;98425.44;;;14.97;65.66
14242;BME280;7205;50.864;12.766;2023-05-25T07:34:12;98428.00;;;15.20;65.67
14242;BME280;7205;50.864;12.766;2023-05-25T07:36:39;98419.63;;;15.38;64.64
14242;BME280;7205;50.864;12.766;2023-05-25T07:39:06;98419.38;;;15.47;64.12
14242;BME280;7205;50.864;12.766;2023-05-25T07:41:33;98427.97;;;15.49;63.29
14242;BME280;7205;50.864;12.766;2023-05-25T07:44:00;98419.19;;;15.49;62.48
14242;BME280;7205;50.864;12.766;2023-05-25T07:46:27;98420.00;;;15.49;62.48
14242;BME280;7205;50.864;12.766;2023-05-25T07:48:54;98423.28;;;15.51;63.00
14242;BME280;7205;50.864;12.766;2023-05-25T07:51:24;98423.28;;;15.51;62.83
14242;BME280;7205;50.864;12.766;2023-05-25T07:53:51;98427.38;;;15.47;62.95
14242;BME280;7205;50.864;12.766;2023-05-25T07:56:20;98428.72;;;15.43;62.30
14242;BME280;7205;50.864;12.766;2023-05-25T07:58:47;98431.78;;;15.40;61.99
14242;BME280;7205;50.864;12.766;2023-05-25T08:01:14;98439.47;;;15.35;61.64
14242;BME280;7205;50.864;12.766;2023-05-25T08:03:41;98437.25;;;15.24;60.82
14242;BME280;7205;50.864;12.766;2023-05-25T08:06:08;98439.00;;;15.17;60.33
14242;BME280;7205;50.864;12.766;2023-05-25T08:08:37;98440.56;;;15.12;60.25
14242;BME280;7205;50.864;12.766;2023-05-25T08:11:03;98451.22;;;15.12;59.95
14242;BME280;7205;50.864;12.766;2023-05-25T08:13:30;98437.34;;;15.16;59.55
14242;BME280;7205;50.864;12.766;2023-05-25T08:15:57;98450.19;;;15.27;59.58
14242;BME280;7205;50.864;12.766;2023-05-25T08:18:24;98442.69;;;15.45;59.90
14242;BME280;7205;50.864;12.766;2023-05-25T08:20:51;98444.22;;;15.69;59.80
14242;BME280;7205;50.864;12.766;2023-05-25T08:23:17;98444.47;;;15.95;59.63
14242;BME280;7205;50.864;12.766;2023-05-25T08:25:46;98446.53;;;16.14;58.03
14242;BME280;7205;50.864;12.766;2023-05-25T08:28:15;98445.19;;;16.24;56.57
14242;BME280;7205;50.864;12.766;2023-05-25T08:30:43;98443.59;;;16.30;56.41
14242;BME280;7205;50.864;12.766;2023-05-25T08:33:10;98460.22;;;16.32;56.08
14242;BME280;7205;50.864;12.766;2023-05-25T08:35:37;98444.81;;;16.27;55.18
14242;BME280;7205;50.864;12.766;2023-05-25T08:38:07;98447.28;;;16.29;54.66
14242;BME280;7205;50.864;12.766;2023-05-25T08:40:33;98441.56;;;16.32;54.68
14242;BME280;7205;50.864;12.766;2023-05-25T08:43:02;98448.16;;;16.36;54.54
14242;BME280;7205;50.864;12.766;2023-05-25T08:45:28;98446.53;;;16.35;55.03
14242;BME280;7205;50.864;12.766;2023-05-25T08:47:57;98450.47;;;16.39;55.40
14242;BME280;7205;50.864;12.766;2023-05-25T08:50:26;98450.16;;;16.49;55.15
14242;BME280;7205;50.864;12.766;2023-05-25T08:52:54;98451.69;;;16.58;54.82
14242;BME280;7205;50.864;12.766;2023-05-25T08:55:23;98447.59;;;16.62;54.68
14242;BME280;7205;50.864;12.766;2023-05-25T08:57:54;98453.63;;;16.70;54.82
14242;BME280;7205;50.864;12.766;2023-05-25T09:00:29;98459.63;;;16.79;54.55
14242;BME280;7205;50.864;12.766;2023-05-25T09:03:01;98456.56;;;16.82;53.85
14242;BME280;7205;50.864;12.766;2023-05-25T09:05:32;98458.78;;;16.78;53.33
14242;BME280;7205;50.864;12.766;2023-05-25T09:08:00;98461.22;;;16.73;52.94
14242;BME280;7205;50.864;12.766;2023-05-25T09:10:29;98472.88;;;16.66;52.95
14242;BME280;7205;50.864;12.766;2023-05-25T09:12:56;98473.81;;;16.58;53.07
14242;BME280;7205;50.864;12.766;2023-05-25T09:15:24;98469.66;;;16.49;53.33
14242;BME280;7205;50.864;12.766;2023-05-25T09:17:52;98468.63;;;16.50;53.51
14242;BME280;7205;50.864;12.766;2023-05-25T09:20:19;98465.38;;;16.55;53.61
14242;BME280;7205;50.864;12.766;2023-05-25T09:22:46;98475.16;;;16.69;53.56
14242;BME280;7205;50.864;12.766;2023-05-25T09:25:16;98472.44;;;16.90;53.87
14242;BME280;7205;50.864;12.766;2023-05-25T09:27:44;98475.25;;;17.09;53.09
14242;BME280;7205;50.864;12.766;2023-05-25T09:30:11;98482.50;;;17.22;52.28
14242;BME280;7205;50.864;12.766;2023-05-25T09:32:38;98474.53;;;17.28;51.65
14242;BME280;7205;50.864;12.766;2023-05-25T09:35:07;98470.66;;;17.31;51.89
14242;BME280;7205;50.864;12.766;2023-05-25T09:37:35;98491.44;;;17.42;51.65
14242;BME280;7205;50.864;12.766;2023-05-25T09:40:02;98492.53;;;17.47;51.09
14242;BME280;7205;50.864;12.766;2023-05-25T09:42:30;98491.50;;;17.48;50.58
14242;BME280;7205;50.864;12.766;2023-05-25T09:44:57;98498.13;;;17.52;50.83
14242;BME280;7205;50.864;12.766;2023-05-25T09:47:24;98495.88;;;17.56;50.71
14242;BME280;7205;50.864;12.766;2023-05-25T09:49:51;98491.53;;;17.55;50.22
14242;BME280;7205;50.864;12.766;2023-05-25T09:52:19;98495.28;;;17.61;50.00
14242;BME280;7205;50.864;12.766;2023-05-25T09:54:47;98494.75;;;17.78;50.54
14242;BME280;7205;50.864;12.766;2023-05-25T09:57:14;98494.19;;;18.02;50.24
14242;BME280;7205;50.864;12.766;2023-05-25T09:59:41;98497.53;;;18.17;49.38
14242;BME280;7205;50.864;12.766;2023-05-25T10:02:10;98500.00;;;18.25;48.61
14242;BME280;7205;50.864;12.766;2023-05-25T10:04:37;98506.59;;;18.23;48.15
14242;BME280;7205;50.864;12.766;2023-05-25T10:07:04;98495.28;;;18.14;47.73
14242;BME280;7205;50.864;12.766;2023-05-25T10:09:36;98499.97;;;17.99;47.75
14242;BME280;7205;50.864;12.766;2023-05-25T10:12:05;98491.69;;;17.81;48.01
14242;BME280;7205;50.864;12.766;2023-05-25T10:14:35;98492.22;;;17.70;48.36
14242;BME280;7205;50.864;12.766;2023-05-25T10:17:03;98503.28;;;17.61;48.27
14242;BME280;7205;50.864;12.766;2023-05-25T10:19:34;98493.97;;;17.50;47.95
14242;BME280;7205;50.864;12.766;2023-05-25T10:22:04;98489.81;;;17.41;47.90
14242;BME280;7205;50.864;12.766;2023-05-25T10:24:43;98496.31;;;17.32;47.73
14242;BME280;7205;50.864;12.766;2023-05-25T10:27:17;98494.25;;;17.27;47.58
14242;BME280;7205;50.864;12.766;2023-05-25T10:29:47;98497.75;;;17.28;47.80
14242;BME280;7205;50.864;12.766;2023-05-25T10:32:15;98499.59;;;17.27;47.17
14242;BME280;7205;50.864;12.766;2023-05-25T10:34:42;98489.09;;;17.26;47.03
14242;BME280;7205;50.864;12.766;2023-05-25T10:37:11;98482.56;;;17.35;47.59
14242;BME280;7205;50.864;12.766;2023-05-25T10:39:40;98500.75;;;17.46;48.63
14242;BME280;7205;50.864;12.766;2023-05-25T10:42:08;98502.00;;;17.50;48.33
14242;BME280;7205;50.864;12.766;2023-05-25T10:44:35;98491.66;;;17.40;48.08
14242;BME280;7205;50.864;12.766;2023-05-25T10:47:03;98495.69;;;17.30;48.48
14242;BME280;7205;50.864;12.766;2023-05-25T10:49:31;98493.81;;;17.24;49.02
14242;BME280;7205;50.864;12.766;2023-05-25T10:51:59;98487.19;;;17.20;49.19
14242;BME280;7205;50.864;12.766;2023-05-25T10:54:28;98488.25;;;17.19;49.29
14242;BME280;7205;50.864;12.766;2023-05-25T10:57:11;98482.47;;;17.15;49.52
14242;BME280;7205;50.864;12.766;2023-05-25T10:59:40;98479.84;;;17.22;49.55
14242;BME280;7205;50.864;12.766;2023-05-25T11:02:09;98473.97;;;17.33;49.40
14242;BME280;7205;50.864;12.766;2023-05-25T11:04:36;98480.63;;;17.50;49.45
14242;BME280;7205;50.864;12.766;2023-05-25T11:07:05;98473.53;;;17.70;49.79
14242;BME280;7205;50.864;12.766;2023-05-25T11:09:42;98476.66;;;17.87;49.43
14242;BME280;7205;50.864;12.766;2023-05-25T11:12:20;98484.53;;;17.95;49.00
14242;BME280;7205;50.864;12.766;2023-05-25T11:15:12;98482.88;;;17.94;48.21
14242;BME280;7205;50.864;12.766;2023-05-25T11:17:45;98472.78;;;17.83;47.68
14242;BME280;7205;50.864;12.766;2023-05-25T11:20:21;98471.91;;;17.76;48.38
14242;BME280;7205;50.864;12.766;2023-05-25T11:22:49;98473.97;;;17.80;48.20
14242;BME280;7205;50.864;12.766;2023-05-25T11:25:41;98474.59;;;17.82;48.02
14242;BME280;7205;50.864;12.766;2023-05-25T11:28:09;98466.41;;;17.97;47.78
14242;BME280;7205;50.864;12.766;2023-05-25T11:30:38;98466.06;;;18.06;47.72
14242;BME280;7205;50.864;12.766;2023-05-25T11:33:07;98468.31;;;18.09;47.71
14242;BME280;7205;50.864;12.766;2023-05-25T11:35:34;98463.59;;;18.05;47.77
14242;BME280;7205;50.864;12.766;2023-05-25T11:38:06;98468.69;;;17.93;47.58
14242;BME280;7205;50.864;12.766;2023-05-25T11:40:33;98468.84;;;17.79;47.61
14242;BME280;7205;50.864;12.766;2023-05-25T11:43:01;98461.19;;;17.69;47.19
14242;BME280;7205;50.864;12.766;2023-05-25T11:45:30;98456.84;;;17.62;47.86
14242;BME280;7205;50.864;12.766;2023-05-25T11:47:58;98450.28;;;17.64;48.27
14242;BME280;7205;50.864;12.766;2023-05-25T11:50:25;98460.16;;;17.64;48.09
14242;BME280;7205;50.864;12.766;2023-05-25T11:52:52;98455.41;;;17.59;48.09
14242;BME280;7205;50.864;12.766;2023-05-25T11:55:19;98449.84;;;17.54;48.32
14242;BME280;7205;50.864;12.766;2023-05-25T11:57:54;98444.06;;;17.50;48.98
14242;BME280;7205;50.864;12.766;2023-05-25T12:00:24;98457.44;;;17.50;48.86
14242;BME280;7205;50.864;12.766;2023-05-25T12:02:53;98448.31;;;17.45;48.54
14242;BME280;7205;50.864;12.766;2023-05-25T12:05:20;98446.66;;;17.37;48.43
14242;BME280;7205;50.864;12.766;2023-05-25T12:07:47;98434.91;;;17.32;48.67
14242;BME280;7205;50.864;12.766;2023-05-25T12:10:15;98445.59;;;17.32;48.78
14242;BME280;7205;50.864;12.766;2023-05-25T12:12:42;98453.81;;;17.30;48.60
14242;BME280;7205;50.864;12.766;2023-05-25T12:15:10;98439.19;;;17.26;47.92
14242;BME280;7205;50.864;12.766;2023-05-25T12:17:40;98435.72;;;17.26;48.03
14242;BME280;7205;50.864;12.766;2023-05-25T12:20:10;98436.34;;;17.28;48.38
14242;BME280;7205;50.864;12.766;2023-05-25T12:22:38;98435.94;;;17.31;48.29
14242;BME280;7205;50.864;12.766;2023-05-25T12:25:06;98435.13;;;17.37;48.33
14242;BME280;7205;50.864;12.766;2023-05-25T12:27:33;98441.16;;;17.45;48.54
14242;BME280;7205;50.864;12.766;2023-05-25T12:30:00;98435.84;;;17.52;49.15
14242;BME280;7205;50.864;12.766;2023-05-25T12:32:27;98431.16;;;17.54;49.16
14242;BME280;7205;50.864;12.766;2023-05-25T12:35:01;98431.97;;;17.55;49.39
14242;BME280;7205;50.864;12.766;2023-05-25T12:37:30;98429.69;;;17.51;49.09
14242;BME280;7205;50.864;12.766;2023-05-25T12:39:57;98429.06;;;17.49;48.88
14242;BME280;7205;50.864;12.766;2023-05-25T12:42:24;98431.94;;;17.48;49.14
14242;BME280;7205;50.864;12.766;2023-05-25T12:44:54;98425.81;;;17.54;49.68
14242;BME280;7205;50.864;12.766;2023-05-25T12:47:22;98422.53;;;17.59;49.30
14242;BME280;7205;50.864;12.766;2023-05-25T12:49:51;98421.34;;;17.68;49.22
14242;BME280;7205;50.864;12.766;2023-05-25T12:52:40;98423.19;;;17.74;48.96
14242;BME280;7205;50.864;12.766;2023-05-25T12:55:24;98422.78;;;17.77;48.40
14242;BME280;7205;50.864;12.766;2023-05-25T12:57:51;98424.03;;;17.81;48.31
14242;BME280;7205;50.864;12.766;2023-05-25T13:00:22;98427.34;;;17.83;48.16
14242;BME280;7205;50.864;12.766;2023-05-25T13:02:49;98433.31;;;17.85;48.44
14242;BME280;7205;50.864;12.766;2023-05-25T13:05:20;98428.41;;;17.88;48.58
14242;BME280;7205;50.864;12.766;2023-05-25T13:07:49;98432.28;;;17.92;48.38
14242;BME280;7205;50.864;12.766;2023-05-25T13:10:16;98426.31;;;17.97;48.11
14242;BME280;7205;50.864;12.766;2023-05-25T13:12:43;98429.84;;;17.97;48.24